Killarney, FL (34740)

8:19 PM EDT on April 24, 2017 (GMT -0400)
Verde Park | | Change Station

Elev 0 ft 28.55 °N, 81.66 °W | Updated 9 seconds ago

Overcast
Overcast
68.9 °F
Feels Like 68.9 °F
N
4.0
Wind Variable Wind from WSW

Today
High -- | Low -- °F
--% Chance of Precip.
Yesterday
High -- | Low -- °F
Precip. -- in
Pressure 29.72 in
Visibility 10.0 miles
Clouds Mostly Cloudy 5500 ft
Dew Point 55 °F
Humidity 63%
Rainfall 0.05 in
Snow Depth Not available.
6:51 AM 7:57 PM
Waning Crescent, 3% visible
METAR KORL 242353Z 26015KT 10SM BKN055 23/12 A2971 RMK AO2 SLP064 60000 T02280122 10294 20228 53008
Pressure 29.72 in
Visibility 10.0 miles
Clouds Mostly Cloudy 5500 ft
Dew Point 55 °F
Humidity 63%
Rainfall 0.05 in
Snow Depth Not available.
6:51 AM 7:57 PM
Waning Crescent, 3% visible
METAR KORL 242353Z 26015KT 10SM BKN055 23/12 A2971 RMK AO2 SLP064 60000 T02280122 10294 20228 53008

Get Severe Weather Alerts

Thanks for signing up!

Be on the lookout for a verification email in your inbox.

You'll start receiving the daily forecast at 8 AM.

×

10-Day Weather Forecast

Almanac

Astronomy

Apr. 24, 2017 Rise Set
Actual Time
Civil Twilight
Nautical Twilight
Astronomical Twilight
Moon
Length of Visible Light
Length of Day
Tomorrow will be .
, % of the Moon is Illuminated

Today's Extremes

State Highs State Lows

Community

WunderPhotos

WunderBlog® & News

Nearby

Air Quality

  Air Quality AQ Index Pollutant
Not available.

Snow Depth

Station Depth Elevation

Earthquake Activity

City Distance Mag. Time & Date
Minimum magnitude displayed is 2.5.

Coastal Water Temperatures

Place Temperature

Stations

Nearby Weather Stations

Station Location Temp. Windchill Dew Point Humidity Wind Precip. Elev Updated Type
                   

Watches & Warnings

There are currently no watches in effect.